Time;durP1;ratioP1;P1;durP2;ratioP2;P2;SDS_P1;SDS_P2;PMS_P1;PMS_P2;Temp;Humidity;BMP_temperature;BMP_pressure;BME280_temperature;BME280_humidity;BME280_pressure;Samples;Min_cycle;Max_cycle;Signal;HPM_P1;HPM_P2
2022/10/29 00:02:04;;;;;;;;;;;13.80;99.90;;;;;;6242331;23;19899;-72
2022/10/29 00:04:30;;;;;;;;;;;13.80;99.90;;;;;;6242004;23;19982;-73
2022/10/29 00:06:55;;;;;;;;;;;13.80;99.90;;;;;;6241857;23;20325;-73
2022/10/29 00:09:20;;;;;;;;;;;14.20;99.90;;;;;;6241919;23;19900;-73
2022/10/29 00:11:46;;;;;;;;;;;13.80;99.90;;;;;;6241829;23;20237;-73
2022/10/29 00:14:11;;;;;;;;;;;13.80;99.90;;;;;;6242139;23;19922;-73
2022/10/29 00:16:38;;;;;;;;;;;13.80;99.90;;;;;;6241633;23;20062;-72
2022/10/29 00:19:04;;;;;;;;;;;13.70;99.90;;;;;;6242193;22;19911;-72
2022/10/29 00:21:29;;;;;;;;;;;13.70;99.90;;;;;;6241933;22;19899;-72
2022/10/29 00:23:55;;;;;;;;;;;13.80;99.90;;;;;;6241533;22;19904;-72
2022/10/29 00:26:21;;;;;;;;;;;14.10;99.90;;;;;;6242016;22;19900;-73
2022/10/29 00:28:47;;;;;;;;;;;14.40;99.90;;;;;;6241422;23;19942;-73
2022/10/29 00:31:14;;;;;;;;;;;13.70;99.90;;;;;;6242163;22;19904;-72
2022/10/29 00:33:39;;;;;;;;;;;13.70;99.90;;;;;;6241464;22;19900;-72
2022/10/29 00:36:06;;;;;;;;;;;13.60;99.90;;;;;;6241911;23;19926;-72
2022/10/29 00:38:33;;;;;;;;;;;13.60;99.90;;;;;;6241467;22;19900;-73
2022/10/29 00:40:58;;;;;;;;;;;13.60;99.90;;;;;;6241751;22;19915;-73
2022/10/29 00:43:24;;;;;;;;;;;13.60;99.90;;;;;;6241871;23;19907;-73
2022/10/29 00:45:58;;;;;;;;;;;13.60;99.90;;;;;;6241231;22;19964;-73
2022/10/29 00:48:24;;;;;;;;;;;13.60;99.90;;;;;;6241847;22;19982;-73
2022/10/29 00:50:50;;;;;;;;;;;13.50;99.90;;;;;;6241414;22;19900;-72
2022/10/29 00:53:18;;;;;;;;;;;13.40;99.90;;;;;;6240853;22;19931;-73
2022/10/29 00:55:43;;;;;;;;;;;13.40;99.90;;;;;;6241241;22;20279;-73
2022/10/29 00:58:09;;;;;;;;;;;13.40;99.90;;;;;;6241953;22;19939;-73
2022/10/29 01:00:34;;;;;;;;;;;13.30;99.90;;;;;;6241582;23;19987;-73
2022/10/29 01:03:00;;;;;;;;;;;13.30;99.90;;;;;;6241443;23;19946;-73
2022/10/29 01:05:26;;;;;;;;;;;13.30;99.90;;;;;;6241403;23;19903;-73
2022/10/29 01:07:52;;;;;;;;;;;13.20;99.90;;;;;;6241251;22;19930;-73
2022/10/29 01:10:20;;;;;;;;;;;13.10;99.90;;;;;;6241753;23;19900;-73
2022/10/29 01:13:01;;;;;;;;;;;13.00;99.90;;;;;;6241189;22;19903;-72
2022/10/29 01:15:41;;;;;;;;;;;14.30;99.90;;;;;;6241641;22;19903;-73
2022/10/29 01:18:15;;;;;;;;;;;13.00;99.90;;;;;;6241800;22;19907;-73
2022/10/29 01:20:57;;;;;;;;;;;13.00;99.90;;;;;;6240344;23;19900;-72
2022/10/29 01:23:33;;;;;;;;;;;13.00;99.90;;;;;;6241565;22;19966;-72
2022/10/29 01:26:17;;;;;;;;;;;12.90;99.90;;;;;;6241787;22;19941;-72
2022/10/29 01:28:53;;;;;;;;;;;13.00;99.90;;;;;;6240935;23;20245;-73
2022/10/29 01:31:19;;;;;;;;;;;13.00;99.90;;;;;;6241728;22;20009;-72
2022/10/29 01:33:47;;;;;;;;;;;12.90;99.90;;;;;;6240967;23;19975;-73
2022/10/29 01:36:12;;;;;;;;;;;12.90;99.90;;;;;;6241098;23;20385;-72
2022/10/29 01:38:50;;;;;;;;;;;13.00;99.90;;;;;;6240934;23;19920;-73
2022/10/29 01:41:30;;;;;;;;;;;12.90;99.90;;;;;;6241398;23;19905;-72
2022/10/29 01:44:00;;;;;;;;;;;12.90;99.90;;;;;;6241335;22;20321;-72
2022/10/29 01:46:28;;;;;;;;;;;12.90;99.90;;;;;;6241940;22;19915;-72
2022/10/29 01:48:55;;;;;;;;;;;12.70;99.90;;;;;;6241760;22;20277;-72
2022/10/29 01:51:22;;;;;;;;;;;13.30;99.90;;;;;;6241466;22;19907;-72
2022/10/29 01:53:48;;;;;;;;;;;12.80;99.90;;;;;;6241053;22;20356;-72
2022/10/29 01:56:13;;;;;;;;;;;12.90;99.90;;;;;;6241512;22;19918;-72
2022/10/29 01:58:41;;;;;;;;;;;12.70;99.90;;;;;;6240962;23;20089;-72
2022/10/29 02:01:15;;;;;;;;;;;12.70;99.90;;;;;;6241481;22;19957;-72
2022/10/29 02:03:56;;;;;;;;;;;12.70;99.90;;;;;;6240708;23;20237;-73
2022/10/29 02:06:30;;;;;;;;;;;12.70;99.90;;;;;;6243434;22;20241;-73
2022/10/29 02:08:59;;;;;;;;;;;12.80;99.90;;;;;;6243244;23;19934;-73
2022/10/29 02:11:28;;;;;;;;;;;12.70;99.90;;;;;;6243453;23;19978;-72
2022/10/29 02:13:59;;;;;;;;;;;12.60;99.90;;;;;;6243323;22;19986;-72
2022/10/29 02:16:25;;;;;;;;;;;12.60;99.90;;;;;;6243622;23;19900;-72
2022/10/29 02:18:51;;;;;;;;;;;12.60;99.90;;;;;;6242208;22;19930;-72
2022/10/29 02:21:18;;;;;;;;;;;12.60;99.90;;;;;;6243370;22;19907;-73
2022/10/29 02:23:43;;;;;;;;;;;12.50;99.90;;;;;;6242618;22;19911;-72
2022/10/29 02:26:09;;;;;;;;;;;12.60;99.90;;;;;;6243631;22;19938;-72
2022/10/29 02:28:34;;;;;;;;;;;12.50;99.90;;;;;;6242839;22;20241;-72
2022/10/29 02:31:00;;;;;;;;;;;12.50;99.90;;;;;;6243048;23;19903;-72
2022/10/29 02:33:25;;;;;;;;;;;12.50;99.90;;;;;;6242581;23;19908;-72
2022/10/29 02:35:51;;;;;;;;;;;14.80;99.90;;;;;;6242850;23;20233;-72
2022/10/29 02:38:16;;;;;;;;;;;12.40;99.90;;;;;;6242865;23;19906;-73
2022/10/29 02:40:42;;;;;;;;;;;12.40;99.90;;;;;;6242800;23;19900;-72
2022/10/29 02:43:07;;;;;;;;;;;12.40;99.90;;;;;;6242885;23;19904;-73
2022/10/29 02:45:32;;;;;;;;;;;12.40;99.90;;;;;;6242742;23;19930;-73
2022/10/29 02:47:58;;;;;;;;;;;13.70;99.90;;;;;;6242263;23;19907;-72
2022/10/29 02:50:23;;;;;;;;;;;12.40;99.90;;;;;;6242804;23;19983;-73
2022/10/29 02:52:49;;;;;;;;;;;12.40;99.90;;;;;;6242419;23;20332;-72
2022/10/29 02:55:14;;;;;;;;;;;12.60;99.90;;;;;;6242978;23;20205;-72
2022/10/29 02:57:43;;;;;;;;;;;12.40;99.90;;;;;;6242182;23;19974;-73
2022/10/29 03:00:09;;;;;;;;;;;12.40;99.90;;;;;;6243179;22;19906;-72
2022/10/29 03:02:35;;;;;;;;;;;12.40;99.90;;;;;;6241690;22;20396;-72
2022/10/29 03:05:00;;;;;;;;;;;12.30;99.90;;;;;;6242500;23;19941;-73
2022/10/29 03:07:26;;;;;;;;;;;12.30;99.90;;;;;;6242717;23;19904;-72
2022/10/29 03:09:51;;;;;;;;;;;12.30;99.90;;;;;;6242200;23;20276;-72
2022/10/29 03:12:16;;;;;;;;;;;12.30;99.90;;;;;;6242646;23;19899;-72
2022/10/29 03:14:42;;;;;;;;;;;12.20;99.90;;;;;;6242423;23;19900;-72
2022/10/29 03:17:07;;;;;;;;;;;12.30;99.90;;;;;;6241946;23;19903;-73
2022/10/29 03:19:33;;;;;;;;;;;12.20;99.90;;;;;;6242500;23;19903;-72
2022/10/29 03:21:58;;;;;;;;;;;12.20;99.90;;;;;;6242192;23;19974;-72
2022/10/29 03:24:24;;;;;;;;;;;12.20;99.90;;;;;;6242343;23;19926;-72
2022/10/29 03:26:49;;;;;;;;;;;12.10;99.90;;;;;;6242427;23;19923;-72
2022/10/29 03:29:14;;;;;;;;;;;12.20;99.90;;;;;;6242260;23;19911;-73
2022/10/29 03:31:40;;;;;;;;;;;12.20;99.90;;;;;;6241738;23;20361;-72
2022/10/29 03:34:05;;;;;;;;;;;12.40;99.90;;;;;;6242382;23;20309;-72
2022/10/29 03:36:31;;;;;;;;;;;12.20;99.90;;;;;;6241980;23;19977;-72
2022/10/29 03:38:56;;;;;;;;;;;12.20;99.90;;;;;;6242008;23;19933;-72
2022/10/29 03:41:22;;;;;;;;;;;12.20;99.90;;;;;;6241837;23;19907;-72
2022/10/29 03:43:47;;;;;;;;;;;12.20;99.90;;;;;;6240603;23;19907;-72
2022/10/29 03:46:12;;;;;;;;;;;12.10;99.90;;;;;;6239769;23;20290;-72
2022/10/29 03:48:38;;;;;;;;;;;12.10;99.90;;;;;;6239687;23;20314;-73
2022/10/29 03:51:07;;;;;;;;;;;12.20;99.90;;;;;;6240418;23;20474;-72
2022/10/29 03:53:33;;;;;;;;;;;12.10;99.90;;;;;;6241056;22;19983;-72
2022/10/29 03:55:59;;;;;;;;;;;12.20;99.90;;;;;;6242067;22;19900;-72
2022/10/29 03:58:25;;;;;;;;;;;12.30;99.90;;;;;;6242276;22;20025;-72
2022/10/29 04:00:57;;;;;;;;;;;12.30;99.90;;;;;;6241084;22;19910;-72
2022/10/29 04:03:22;;;;;;;;;;;12.10;99.90;;;;;;6241985;23;19915;-72
2022/10/29 04:05:47;;;;;;;;;;;12.40;99.90;;;;;;6241592;23;19903;-72
2022/10/29 04:08:13;;;;;;;;;;;13.50;99.90;;;;;;6241922;23;19930;-73
2022/10/29 04:10:42;;;;;;;;;;;12.50;99.90;;;;;;6241304;23;20631;-72
2022/10/29 04:13:07;;;;;;;;;;;12.50;99.90;;;;;;6242156;22;19990;-72
2022/10/29 04:15:33;;;;;;;;;;;12.50;99.90;;;;;;6240944;23;19947;-72
2022/10/29 04:17:58;;;;;;;;;;;12.60;99.90;;;;;;6241753;23;19906;-72
2022/10/29 04:20:24;;;;;;;;;;;12.50;99.90;;;;;;6241983;23;19899;-72
2022/10/29 04:22:50;;;;;;;;;;;11.20;99.90;;;;;;6241451;23;19916;-73
2022/10/29 04:25:15;;;;;;;;;;;12.60;99.90;;;;;;6241893;22;19899;-72
2022/10/29 04:27:41;;;;;;;;;;;12.50;99.90;;;;;;6241420;23;20265;-72
2022/10/29 04:30:07;;;;;;;;;;;12.50;99.90;;;;;;6241017;23;19995;-72
2022/10/29 04:32:32;;;;;;;;;;;12.40;99.90;;;;;;6241546;22;19923;-72
2022/10/29 04:34:57;;;;;;;;;;;12.40;99.90;;;;;;6241798;23;19946;-72
2022/10/29 04:37:23;;;;;;;;;;;12.40;99.90;;;;;;6241513;23;19903;-72
2022/10/29 04:39:48;;;;;;;;;;;12.40;99.90;;;;;;6241133;23;19914;-73
2022/10/29 04:42:14;;;;;;;;;;;12.50;99.90;;;;;;6241832;23;19904;-72
2022/10/29 04:44:39;;;;;;;;;;;12.40;99.90;;;;;;6240572;23;19905;-72
2022/10/29 04:47:05;;;;;;;;;;;13.10;99.90;;;;;;6241753;23;19925;-72
2022/10/29 04:49:30;;;;;;;;;;;12.50;99.90;;;;;;6241424;23;19957;-72
2022/10/29 04:51:55;;;;;;;;;;;12.50;99.90;;;;;;6241351;23;20380;-72
2022/10/29 04:54:21;;;;;;;;;;;12.60;99.90;;;;;;6241795;23;19900;-72
2022/10/29 04:56:46;;;;;;;;;;;12.60;99.90;;;;;;6241069;23;19899;-72
2022/10/29 04:59:12;;;;;;;;;;;12.60;99.90;;;;;;6241056;23;19999;-72
2022/10/29 05:01:37;;;;;;;;;;;12.50;99.90;;;;;;6241183;23;19903;-72
2022/10/29 05:04:03;;;;;;;;;;;12.60;99.90;;;;;;6241221;23;19911;-72
2022/10/29 05:06:28;;;;;;;;;;;12.60;99.90;;;;;;6241315;23;19899;-72
2022/10/29 05:08:54;;;;;;;;;;;13.50;99.90;;;;;;6241360;23;19970;-72
2022/10/29 05:11:19;;;;;;;;;;;12.40;99.90;;;;;;6241355;23;19903;-72
2022/10/29 05:13:45;;;;;;;;;;;12.60;99.90;;;;;;6240348;23;19925;-72
2022/10/29 05:16:10;;;;;;;;;;;12.70;99.90;;;;;;6242008;22;19899;-72
2022/10/29 05:18:37;;;;;;;;;;;12.60;99.90;;;;;;6240972;23;20321;-73
2022/10/29 05:21:02;;;;;;;;;;;12.70;99.90;;;;;;6239773;23;20612;-72
2022/10/29 05:23:28;;;;;;;;;;;12.70;99.90;;;;;;6241135;23;19943;-72
2022/10/29 05:25:54;;;;;;;;;;;12.80;99.90;;;;;;6240709;23;19900;-73
2022/10/29 05:28:20;;;;;;;;;;;12.80;99.90;;;;;;6240077;22;19942;-73
2022/10/29 05:30:47;;;;;;;;;;;12.80;99.90;;;;;;6239958;22;19910;-72
2022/10/29 05:33:16;;;;;;;;;;;12.80;99.90;;;;;;6241532;22;19907;-73
2022/10/29 05:35:41;;;;;;;;;;;12.80;99.90;;;;;;6240913;22;19900;-73
2022/10/29 05:38:08;;;;;;;;;;;12.90;99.90;;;;;;6241244;23;19910;-73
2022/10/29 05:40:33;;;;;;;;;;;12.80;99.90;;;;;;6240841;22;20225;-72
2022/10/29 05:42:59;;;;;;;;;;;12.80;99.90;;;;;;6240164;23;19908;-72
2022/10/29 05:45:24;;;;;;;;;;;12.80;99.90;;;;;;6241189;23;20317;-72
2022/10/29 05:47:56;;;;;;;;;;;12.80;99.90;;;;;;6240363;23;20229;-72
2022/10/29 05:50:22;;;;;;;;;;;12.80;99.90;;;;;;6241450;22;19899;-72
2022/10/29 05:52:53;;;;;;;;;;;12.80;99.90;;;;;;6240929;23;19900;-72
2022/10/29 05:55:18;;;;;;;;;;;12.80;99.90;;;;;;6241364;22;19998;-72
2022/10/29 05:57:44;;;;;;;;;;;12.80;99.90;;;;;;6240143;23;20398;-72
2022/10/29 06:00:10;;;;;;;;;;;13.20;99.90;;;;;;6241635;23;20194;-73
2022/10/29 06:02:35;;;;;;;;;;;12.90;99.90;;;;;;6240481;23;19909;-73
2022/10/29 06:05:00;;;;;;;;;;;12.90;99.90;;;;;;6240479;23;19899;-72
2022/10/29 06:07:26;;;;;;;;;;;12.90;99.90;;;;;;6240760;23;19914;-72
2022/10/29 06:09:51;;;;;;;;;;;12.80;99.90;;;;;;6240541;23;19906;-72
2022/10/29 06:12:17;;;;;;;;;;;12.90;99.90;;;;;;6241068;23;20029;-73
2022/10/29 06:14:42;;;;;;;;;;;12.90;99.90;;;;;;6241231;23;19998;-72
2022/10/29 06:17:07;;;;;;;;;;;12.90;99.90;;;;;;6241642;23;19900;-72
2022/10/29 06:19:33;;;;;;;;;;;12.80;99.90;;;;;;6241074;23;20237;-72
2022/10/29 06:21:58;;;;;;;;;;;12.90;99.90;;;;;;6241009;23;19900;-71
2022/10/29 06:24:24;;;;;;;;;;;12.90;99.90;;;;;;6241151;23;19912;-71
2022/10/29 06:26:51;;;;;;;;;;;13.00;99.90;;;;;;6240355;23;20025;-71
2022/10/29 06:29:17;;;;;;;;;;;13.00;99.90;;;;;;6240633;22;19922;-71
2022/10/29 06:31:42;;;;;;;;;;;13.10;99.90;;;;;;6240869;23;19899;-71
2022/10/29 06:34:07;;;;;;;;;;;13.10;99.90;;;;;;6241414;23;19900;-71
2022/10/29 06:36:33;;;;;;;;;;;13.20;99.90;;;;;;6241513;23;19906;-71
2022/10/29 06:38:58;;;;;;;;;;;13.20;99.90;;;;;;6240483;23;19901;-71
2022/10/29 06:41:26;;;;;;;;;;;13.20;99.90;;;;;;6241336;23;20322;-71
2022/10/29 06:43:52;;;;;;;;;;;13.20;99.90;;;;;;6241015;22;20124;-71
2022/10/29 06:46:17;;;;;;;;;;;13.30;99.90;;;;;;6241485;22;20038;-71
2022/10/29 06:48:43;;;;;;;;;;;13.40;99.90;;;;;;6241118;22;19907;-72
2022/10/29 06:51:08;;;;;;;;;;;13.30;99.90;;;;;;6241230;23;19900;-71
2022/10/29 06:53:34;;;;;;;;;;;13.30;99.90;;;;;;6241867;23;20340;-71
2022/10/29 06:55:59;;;;;;;;;;;13.30;99.90;;;;;;6242860;23;19998;-71
2022/10/29 06:58:25;;;;;;;;;;;13.40;99.90;;;;;;6242823;23;19900;-72
2022/10/29 07:00:50;;;;;;;;;;;13.40;99.90;;;;;;6242730;23;19970;-71
2022/10/29 07:03:17;;;;;;;;;;;13.20;99.90;;;;;;6243313;23;20189;-72
2022/10/29 07:05:42;;;;;;;;;;;13.50;99.90;;;;;;6242364;22;19900;-72
2022/10/29 07:08:08;;;;;;;;;;;13.60;99.90;;;;;;6242047;23;19900;-72
2022/10/29 07:10:33;;;;;;;;;;;13.60;99.90;;;;;;6242686;23;19935;-72
2022/10/29 07:12:59;;;;;;;;;;;13.70;99.90;;;;;;6242471;23;20256;-72
2022/10/29 07:15:25;;;;;;;;;;;13.70;99.90;;;;;;6242929;22;19907;-72
2022/10/29 07:17:54;;;;;;;;;;;13.70;99.90;;;;;;6242619;22;19978;-72
2022/10/29 07:20:19;;;;;;;;;;;13.80;99.90;;;;;;6242800;22;19930;-72
2022/10/29 07:22:46;;;;;;;;;;;13.80;99.90;;;;;;6241839;23;19969;-71
2022/10/29 07:25:11;;;;;;;;;;;14.50;99.90;;;;;;6242767;22;20222;-72
2022/10/29 07:27:36;;;;;;;;;;;14.00;99.90;;;;;;6242274;23;19906;-72
2022/10/29 07:30:02;;;;;;;;;;;14.00;99.90;;;;;;6242666;23;19929;-72
2022/10/29 07:32:27;;;;;;;;;;;14.10;99.90;;;;;;6242966;23;19899;-72
2022/10/29 07:34:53;;;;;;;;;;;14.80;99.90;;;;;;6242475;23;20205;-72
2022/10/29 07:37:18;;;;;;;;;;;14.10;99.90;;;;;;6241916;23;19918;-72
2022/10/29 07:39:44;;;;;;;;;;;14.20;99.90;;;;;;6242033;23;19939;-72
2022/10/29 07:42:09;;;;;;;;;;;14.30;99.90;;;;;;6242632;23;19899;-72
2022/10/29 07:44:34;;;;;;;;;;;17.00;99.90;;;;;;6242529;23;19914;-73
2022/10/29 07:47:01;;;;;;;;;;;14.40;99.90;;;;;;6242390;23;20215;-72
2022/10/29 07:49:27;;;;;;;;;;;14.30;99.90;;;;;;6242557;22;19910;-72
2022/10/29 07:51:53;;;;;;;;;;;14.30;99.90;;;;;;6241587;23;19904;-72
2022/10/29 07:54:18;;;;;;;;;;;14.40;99.90;;;;;;6242409;22;20233;-72
2022/10/29 07:56:43;;;;;;;;;;;14.50;99.90;;;;;;6242062;23;20238;-72
2022/10/29 07:59:13;;;;;;;;;;;14.50;99.90;;;;;;6242322;23;19907;-72
2022/10/29 08:01:38;;;;;;;;;;;14.50;99.90;;;;;;6242109;22;19899;-72
2022/10/29 08:04:04;;;;;;;;;;;14.50;99.90;;;;;;6241904;23;19903;-72
2022/10/29 08:06:29;;;;;;;;;;;14.60;99.90;;;;;;6242017;23;19900;-72
2022/10/29 08:08:55;;;;;;;;;;;14.40;99.90;;;;;;6242115;23;19903;-72
2022/10/29 08:11:21;;;;;;;;;;;14.40;99.90;;;;;;6242141;23;20379;-73
2022/10/29 08:13:47;;;;;;;;;;;14.70;99.90;;;;;;6242116;23;19903;-72
2022/10/29 08:16:12;;;;;;;;;;;15.40;99.90;;;;;;6242369;22;19900;-73
2022/10/29 08:18:38;;;;;;;;;;;17.30;99.90;;;;;;6241976;23;19906;-72
2022/10/29 08:21:04;;;;;;;;;;;14.90;99.90;;;;;;6241864;23;19900;-73
2022/10/29 08:23:29;;;;;;;;;;;15.00;99.90;;;;;;6241833;22;19993;-72
2022/10/29 08:25:56;;;;;;;;;;;15.00;99.90;;;;;;6242314;23;20241;-72
2022/10/29 08:28:21;;;;;;;;;;;15.10;99.90;;;;;;6241933;22;19903;-72
2022/10/29 08:30:50;;;;;;;;;;;15.20;99.90;;;;;;6241697;23;19953;-72
2022/10/29 08:33:16;;;;;;;;;;;15.20;99.90;;;;;;6242216;22;19919;-73
2022/10/29 08:35:42;;;;;;;;;;;15.30;99.90;;;;;;6241215;22;19978;-72
2022/10/29 08:38:07;;;;;;;;;;;15.40;99.90;;;;;;6241985;23;19988;-72
2022/10/29 08:40:36;;;;;;;;;;;15.50;99.90;;;;;;6241823;23;19899;-73
2022/10/29 08:43:20;;;;;;;;;;;15.50;99.90;;;;;;6241877;23;19908;-72
2022/10/29 08:45:47;;;;;;;;;;;15.60;99.90;;;;;;6241749;23;19914;-72
2022/10/29 08:48:22;;;;;;;;;;;16.80;99.90;;;;;;6242208;22;19954;-72
2022/10/29 08:51:04;;;;;;;;;;;15.80;99.90;;;;;;6241159;22;19899;-72
2022/10/29 08:53:38;;;;;;;;;;;15.80;99.90;;;;;;6242181;22;19899;-73
2022/10/29 08:56:12;;;;;;;;;;;15.90;99.90;;;;;;6241758;22;20229;-73
2022/10/29 08:59:00;;;;;;;;;;;15.90;99.90;;;;;;6241426;22;19900;-72
2022/10/29 09:01:26;;;;;;;;;;;16.00;99.90;;;;;;6225375;23;19899;-72
2022/10/29 09:03:51;;;;;;;;;;;17.10;99.90;;;;;;6241465;23;19930;-73
2022/10/29 09:06:42;;;;;;;;;;;16.00;99.90;;;;;;6241210;23;19906;-72
2022/10/29 09:09:26;;;;;;;;;;;16.10;99.90;;;;;;6242007;22;19899;-72
2022/10/29 09:11:55;;;;;;;;;;;16.10;99.90;;;;;;6241481;22;19900;-73
2022/10/29 09:14:27;;;;;;;;;;;16.30;99.90;;;;;;6241020;23;20288;-73
2022/10/29 09:16:55;;;;;;;;;;;16.30;99.90;;;;;;6241537;22;19933;-73
2022/10/29 09:19:33;;;;;;;;;;;16.40;99.90;;;;;;6241407;23;19906;-73
2022/10/29 09:22:18;;;;;;;;;;;16.50;99.90;;;;;;6241396;23;20229;-73
2022/10/29 09:25:02;;;;;;;;;;;16.70;99.90;;;;;;6178864;22;20222;-72
2022/10/29 09:27:49;;;;;;;;;;;16.70;99.90;;;;;;6241507;23;19951;-72
2022/10/29 09:30:16;;;;;;;;;;;16.80;99.90;;;;;;6241527;22;19961;-72
2022/10/29 09:32:44;;;;;;;;;;;16.90;99.90;;;;;;6241314;22;20178;-72
2022/10/29 09:35:14;;;;;;;;;;;17.60;99.90;;;;;;6240812;22;20206;-72
2022/10/29 09:37:44;;;;;;;;;;;17.10;99.90;;;;;;6241356;22;19900;-71
2022/10/29 09:40:29;;;;;;;;;;;17.10;99.90;;;;;;6241513;22;19907;-72
2022/10/29 09:42:57;;;;;;;;;;;17.20;99.90;;;;;;6241211;22;20010;-73
2022/10/29 09:45:26;;;;;;;;;;;17.80;99.90;;;;;;6239521;23;20318;-72
2022/10/29 09:48:08;;;;;;;;;;;17.30;99.90;;;;;;6240343;22;19899;-72
2022/10/29 09:50:38;;;;;;;;;;;17.30;99.90;;;;;;6241359;22;19899;-72
2022/10/29 09:53:04;;;;;;;;;;;17.20;99.90;;;;;;6241463;22;19954;-72
2022/10/29 09:55:38;;;;;;;;;;;17.80;99.90;;;;;;6241139;23;19900;-72
2022/10/29 09:58:04;;;;;;;;;;;17.40;99.90;;;;;;6241471;22;19923;-72
2022/10/29 10:00:30;;;;;;;;;;;17.30;99.90;;;;;;6240695;22;19906;-72
2022/10/29 10:02:55;;;;;;;;;;;17.50;99.90;;;;;;6240197;22;19950;-72
2022/10/29 10:05:25;;;;;;;;;;;17.40;99.90;;;;;;6240895;23;19919;-72
2022/10/29 10:08:05;;;;;;;;;;;17.50;99.90;;;;;;6241083;22;19900;-74
2022/10/29 10:10:31;;;;;;;;;;;17.50;99.90;;;;;;6241213;22;19900;-72
2022/10/29 10:13:00;;;;;;;;;;;17.50;99.90;;;;;;6241142;22;19907;-72
2022/10/29 10:15:31;;;;;;;;;;;17.50;99.90;;;;;;6241091;22;19900;-72
2022/10/29 10:18:05;;;;;;;;;;;17.60;99.90;;;;;;6240864;22;19912;-72
2022/10/29 10:20:32;;;;;;;;;;;17.60;99.90;;;;;;6240861;22;19950;-72
2022/10/29 10:22:58;;;;;;;;;;;17.60;99.90;;;;;;6240796;22;19911;-71
2022/10/29 10:25:30;;;;;;;;;;;17.80;99.90;;;;;;6241078;23;20125;-74
2022/10/29 10:27:56;;;;;;;;;;;17.60;99.90;;;;;;6242745;22;19907;-74
2022/10/29 10:30:22;;;;;;;;;;;17.80;99.90;;;;;;6241558;23;19899;-73
2022/10/29 10:32:48;;;;;;;;;;;17.70;99.90;;;;;;6242296;22;20239;-74
2022/10/29 10:35:28;;;;;;;;;;;17.70;99.90;;;;;;6243226;23;19899;-74
2022/10/29 10:37:54;;;;;;;;;;;17.90;99.90;;;;;;6242788;22;19960;-74
2022/10/29 10:40:21;;;;;;;;;;;18.00;99.90;;;;;;6242877;22;19931;-74
2022/10/29 10:42:46;;;;;;;;;;;18.00;99.90;;;;;;6242651;22;19908;-74
2022/10/29 10:45:13;;;;;;;;;;;18.10;99.90;;;;;;6243301;22;19922;-74
2022/10/29 10:47:47;;;;;;;;;;;18.10;99.90;;;;;;6242208;23;19907;-74
2022/10/29 10:50:25;;;;;;;;;;;18.10;99.90;;;;;;6243450;22;19927;-74
2022/10/29 10:52:53;;;;;;;;;;;18.30;99.90;;;;;;6242810;23;19942;-74
2022/10/29 10:55:23;;;;;;;;;;;18.40;99.90;;;;;;6241542;22;19906;-74
2022/10/29 10:57:55;;;;;;;;;;;18.60;99.90;;;;;;6242161;22;20631;-74
2022/10/29 11:00:21;;;;;;;;;;;19.00;99.90;;;;;;6241426;22;19994;-75
2022/10/29 11:02:53;;;;;;;;;;;18.80;99.90;;;;;;6241894;23;20266;-75
2022/10/29 11:05:20;;;;;;;;;;;18.90;99.90;;;;;;6242518;22;19899;-74
2022/10/29 11:07:51;;;;;;;;;;;19.00;99.90;;;;;;6242710;22;19911;-74
2022/10/29 11:10:17;;;;;;;;;;;19.10;99.90;;;;;;6243293;23;20348;-74
2022/10/29 11:12:47;;;;;;;;;;;19.10;99.90;;;;;;6242437;22;19900;-75
2022/10/29 11:15:15;;;;;;;;;;;19.00;99.90;;;;;;6242156;22;19903;-74
2022/10/29 11:17:45;;;;;;;;;;;19.10;99.90;;;;;;6242001;22;19978;-74
2022/10/29 11:20:22;;;;;;;;;;;19.20;99.90;;;;;;6242627;22;19903;-74
2022/10/29 11:22:51;;;;;;;;;;;19.30;99.90;;;;;;6242287;22;19908;-74
2022/10/29 11:25:20;;;;;;;;;;;19.30;99.90;;;;;;6242521;22;19914;-74
2022/10/29 11:28:01;;;;;;;;;;;19.40;99.90;;;;;;6241907;22;19915;-74
2022/10/29 11:30:28;;;;;;;;;;;19.50;99.90;;;;;;6241833;22;19983;-74
2022/10/29 11:33:12;;;;;;;;;;;19.50;99.90;;;;;;6242231;22;20317;-74
2022/10/29 11:35:44;;;;;;;;;;;19.60;99.90;;;;;;6242375;23;20233;-74
2022/10/29 11:38:17;;;;;;;;;;;19.70;99.90;;;;;;6241591;22;19900;-74
2022/10/29 11:40:49;;;;;;;;;;;19.70;99.90;;;;;;6242357;22;20198;-73
2022/10/29 11:43:16;;;;;;;;;;;19.60;99.90;;;;;;6242451;23;19919;-74
2022/10/29 11:45:53;;;;;;;;;;;19.50;99.90;;;;;;6241506;22;19899;-74
2022/10/29 11:48:19;;;;;;;;;;;19.60;99.90;;;;;;6242503;22;19919;-74
2022/10/29 11:50:50;;;;;;;;;;;19.40;99.90;;;;;;6242367;22;19991;-74
2022/10/29 11:53:39;;;;;;;;;;;19.60;99.90;;;;;;6242047;22;19900;-74
2022/10/29 11:56:08;;;;;;;;;;;19.50;99.90;;;;;;6242527;22;19900;-73
2022/10/29 11:58:36;;;;;;;;;;;19.50;99.90;;;;;;6241378;23;20328;-74
2022/10/29 12:01:02;;;;;;;;;;;20.60;99.90;;;;;;6242297;22;19907;-74
2022/10/29 12:03:34;;;;;;;;;;;19.50;99.90;;;;;;6242199;23;19907;-74
2022/10/29 12:06:15;;;;;;;;;;;19.40;99.90;;;;;;6242207;22;19899;-74
2022/10/29 12:09:00;;;;;;;;;;;19.50;99.90;;;;;;6242342;23;19924;-74
2022/10/29 12:11:32;;;;;;;;;;;20.40;99.90;;;;;;6241484;23;19899;-74
2022/10/29 12:14:03;;;;;;;;;;;19.70;99.90;;;;;;6239659;23;20170;-74
2022/10/29 12:16:28;;;;;;;;;;;19.90;99.90;;;;;;6241924;22;19899;-74
2022/10/29 12:18:53;;;;;;;;;;;20.00;99.90;;;;;;6241873;23;19900;-73
2022/10/29 12:21:39;;;;;;;;;;;19.90;99.90;;;;;;6241611;23;19963;-74
2022/10/29 12:24:23;;;;;;;;;;;20.00;99.90;;;;;;6242017;22;19960;-72
2022/10/29 12:26:57;;;;;;;;;;;20.00;99.90;;;;;;6242010;23;20202;-74
2022/10/29 12:29:22;;;;;;;;;;;20.00;99.90;;;;;;6240925;22;20175;-74
2022/10/29 12:32:06;;;;;;;;;;;20.10;99.90;;;;;;6241698;23;19926;-74
2022/10/29 12:34:39;;;;;;;;;;;19.80;99.90;;;;;;6242041;22;19986;-73
2022/10/29 12:37:23;;;;;;;;;;;20.10;99.90;;;;;;6242321;22;20306;-74
2022/10/29 12:39:56;;;;;;;;;;;20.20;99.90;;;;;;6241766;23;19903;-74
2022/10/29 12:42:23;;;;;;;;;;;20.40;99.90;;;;;;6241479;22;19910;-74
2022/10/29 12:44:58;;;;;;;;;;;20.40;99.90;;;;;;6241701;22;19911;-74
2022/10/29 12:47:29;;;;;;;;;;;21.30;99.90;;;;;;6241842;22;19900;-75
2022/10/29 12:49:57;;;;;;;;;;;20.60;99.90;;;;;;6241511;22;19906;-74
2022/10/29 12:52:29;;;;;;;;;;;20.60;99.90;;;;;;6241485;23;19911;-74
2022/10/29 12:54:55;;;;;;;;;;;20.70;99.90;;;;;;6240843;23;20359;-74
2022/10/29 12:57:28;;;;;;;;;;;21.00;99.90;;;;;;6240489;22;19994;-74
2022/10/29 12:59:54;;;;;;;;;;;20.50;99.90;;;;;;6241728;22;19919;-74
2022/10/29 13:02:25;;;;;;;;;;;21.30;99.90;;;;;;6241767;23;19919;-75
2022/10/29 13:05:08;;;;;;;;;;;20.40;99.90;;;;;;6241593;22;19907;-75
2022/10/29 13:07:56;;;;;;;;;;;20.30;99.90;;;;;;6241139;22;20257;-75
2022/10/29 13:10:27;;;;;;;;;;;20.30;99.90;;;;;;6241288;23;20268;-74
2022/10/29 13:12:58;;;;;;;;;;;21.30;99.90;;;;;;6241378;22;19911;-73
2022/10/29 13:15:27;;;;;;;;;;;20.40;99.90;;;;;;6239937;23;19910;-75
2022/10/29 13:17:54;;;;;;;;;;;20.40;99.90;;;;;;6241149;22;19908;-74
2022/10/29 13:20:24;;;;;;;;;;;21.60;99.90;;;;;;6241427;22;19907;-74
2022/10/29 13:22:50;;;;;;;;;;;20.40;99.90;;;;;;6240580;22;20221;-74
2022/10/29 13:25:41;;;;;;;;;;;20.90;99.90;;;;;;6240024;22;19910;-75
2022/10/29 13:28:06;;;;;;;;;;;20.40;99.90;;;;;;6241287;22;19907;-75
2022/10/29 13:30:32;;;;;;;;;;;20.40;99.90;;;;;;6239681;23;20356;-75
2022/10/29 13:32:58;;;;;;;;;;;20.80;99.90;;;;;;6240119;22;19934;-75
2022/10/29 13:35:23;;;;;;;;;;;20.60;99.90;;;;;;6240634;22;19900;-75
2022/10/29 13:37:52;;;;;;;;;;;20.70;99.90;;;;;;6241140;23;19900;-76
2022/10/29 13:40:20;;;;;;;;;;;20.80;99.90;;;;;;6240317;23;20324;-75
2022/10/29 13:42:48;;;;;;;;;;;20.90;99.90;;;;;;6239697;23;20025;-75
2022/10/29 13:45:14;;;;;;;;;;;21.00;99.90;;;;;;6240562;22;20322;-75
2022/10/29 13:47:40;;;;;;;;;;;21.00;99.90;;;;;;6240714;23;19911;-75
2022/10/29 13:50:06;;;;;;;;;;;20.60;99.90;;;;;;6241301;22;19906;-75
2022/10/29 13:52:36;;;;;;;;;;;21.10;99.90;;;;;;6241170;22;19970;-75
2022/10/29 13:55:01;;;;;;;;;;;21.10;99.90;;;;;;6240396;22;19909;-75
2022/10/29 13:57:49;;;;;;;;;;;21.00;99.90;;;;;;6240788;22;20317;-75
2022/10/29 14:00:19;;;;;;;;;;;20.90;99.90;;;;;;6220963;23;20086;-74
2022/10/29 14:02:54;;;;;;;;;;;20.90;99.90;;;;;;6241601;22;19970;-75
2022/10/29 14:05:21;;;;;;;;;;;20.80;99.90;;;;;;6242535;22;20350;-75
2022/10/29 14:08:06;;;;;;;;;;;20.80;99.90;;;;;;6242694;22;19907;-75
2022/10/29 14:10:40;;;;;;;;;;;20.70;99.90;;;;;;6242629;23;20388;-75
2022/10/29 14:13:10;;;;;;;;;;;20.40;99.90;;;;;;6243621;22;19900;-75
2022/10/29 14:15:38;;;;;;;;;;;21.30;99.90;;;;;;6243240;22;19926;-75
2022/10/29 14:18:35;;;;;;;;;;;20.90;99.90;;;;;;6243522;22;19903;-75
2022/10/29 14:21:03;;;;;;;;;;;20.60;99.90;;;;;;6159417;23;19900;-75
2022/10/29 14:23:29;;;;;;;;;;;21.40;99.90;;;;;;6242777;22;20267;-75
2022/10/29 14:25:56;;;;;;;;;;;20.70;99.90;;;;;;6243123;22;19907;-75